メインページ
METAR-TAF:

METAR-TAF

空港 :

ビクトリア港, ブリティッシュコロンビア州, カナダ

緯度: 48-25N, 経度: 123-20W, 海抜: 5m

現時点の気象観測

当レポートは38分前の18:00(UTC)に作成
変向風 2kt
気温 10°C
湿度 100%
気圧 1017 hPa
視程: 1.6km
高度200ftの曇り
小雨, 靄

METAR: CYWH 171800Z VRB02KT 1SM -RA BR OVC002 10/10 A3003 RMK FG2SF6 SLP172

時間: 10:38 (18:38 UTC)

予報

当レポートは58分前の17:40(UTC)に作成
予報は17日の 18時(UTC)から 18日の 05時(UTC)まで有効
変向風 3kt
視程: 1.6km
高度200ftの千切れ雲あり
高度1200ftの曇り
小雨, 靄
17日の 18時(UTC)から 17日の 20時(UTC)まで一時的に
視程: 10km
高度1200ftの雲は散在している
高度4000ftの千切れ雲あり
17日の 18時(UTC)から 17日の 20時(UTC)まで徐々に
西/南西の風 15kt、最大25ktの突風を伴う
17日の 2000時(UTC)から
西/南西の風 15kt、最大25ktの突風を伴う
視程: 10km
高度2000ftの雲は散在している
17日の 20時(UTC)から 18日の 05時(UTC)まで一時的に
高度2000ftの千切れ雲あり

TAF: CYWH 171740Z 1718/1805 VRB03KT 1SM -RA BR BKN002 OVC012 TEMPO 1718/1720 P6SM NSW SCT012 BKN040 BECMG 1718/1720 25015G25KT FM172000 25015G25KT P6SM SCT020 TEMPO 1720/1805 BKN020 RMK NXT FCST BY 180000Z

4,000以上の空港の気象観測と天気予報(METAR報とTAF報)

利用可能な観測所は地図上に黄色い丸と赤い丸で示す。

丸の上にカーソルを重ねると観測所名を参照できる。

次にクリックすると気象観測と天気予報を参照できる。

マップの切り替え:黒色「×」印の緑ボタンをクリックして拡大、「-」印の緑ボタンをクリックして縮小、緑色の三角印をクリックして隣りの地図に切り替え


METAR-TAF: